Flugplatz Peine-Eddesse

Für EDVP sind keine METAR/TAF Berichte vorhanden.
Es werden die Flugwettermeldungen vom Flugplatz Braunschweig Wolfsburg in 23 km Entfernung angezeigt.

Bericht für EDVE

vom 25.10. um 17:20 UTC

Wind 4 kt aus 160°

Sichtweite 10 km oder mehr

gute Sicht, keine Wolken < 5000 ft, keine CB, keine Wettererscheinungen (CAVOK)

Temperatur 9.0°C

Taupunkt 4.0°C

Luftfeuchtigkeit 71%

Luftdruck 1018 hPa

EDVE 251720Z 16004KT CAVOK 09/04 Q1018

Prognose für EDVE

vom 25.10. um 17:00 UTC

Zwischen 18:00 UTC und 21:00 UTC

Wind 4 kt aus 200°

Sichtweite 10 km oder mehr

aufgelockert bewölkt in 3500 ft

TAF EDVE 251700Z 2518/2521 20004KT 9999 SCT035
Impressum